Time;durP1;ratioP1;P1;durP2;ratioP2;P2;SDS_P1;SDS_P2;PMS_P1;PMS_P2;Temp;Humidity;BMP_temperature;BMP_pressure;BME280_temperature;BME280_humidity;BME280_pressure;Samples;Min_cycle;Max_cycle;Signal;HPM_P1;HPM_P2
2021/04/24 00:01:31;;;;;;;7.97;4.70;;;6.40;39.50;;;;;;5068346;28;37590;-82
2021/04/24 00:04:03;;;;;;;10.57;4.90;;;6.40;39.70;;;;;;5086256;28;37475;-85
2021/04/24 00:06:31;;;;;;;6.63;4.47;;;6.40;39.60;;;;;;5070741;28;38176;-86
2021/04/24 00:09:00;;;;;;;6.30;4.63;;;6.30;39.50;;;;;;5063643;28;38045;-86
2021/04/24 00:11:29;;;;;;;7.87;5.20;;;6.30;39.60;;;;;;5086515;28;39082;-86
2021/04/24 00:14:00;;;;;;;6.50;4.20;;;6.30;40.00;;;;;;5067379;28;37344;-87
2021/04/24 00:16:29;;;;;;;7.93;5.00;;;6.30;39.90;;;;;;5075816;28;38398;-84
2021/04/24 00:18:58;;;;;;;6.67;3.93;;;6.30;40.00;;;;;;5067119;28;37861;-85
2021/04/24 00:21:25;;;;;;;6.33;4.03;;;6.30;40.10;;;;;;5063003;28;36891;-86
2021/04/24 00:23:52;;;;;;;6.17;4.20;;;6.20;40.10;;;;;;5082340;28;36947;-87
2021/04/24 00:26:19;;;;;;;5.97;4.10;;;6.20;40.30;;;;;;5070197;28;38854;-87
2021/04/24 00:28:49;;;;;;;5.70;4.30;;;6.20;40.70;;;;;;5082873;28;39374;-89
2021/04/24 00:31:16;;;;;;;6.17;3.83;;;6.10;40.60;;;;;;5073242;28;37661;-86
2021/04/24 00:33:45;;;;;;;5.70;4.07;;;6.20;40.60;;;;;;5082573;28;38298;-86
2021/04/24 00:36:13;;;;;;;9.37;4.17;;;6.20;40.30;;;;;;5072500;28;39094;-87
2021/04/24 00:38:41;;;;;;;8.43;5.00;;;6.10;40.40;;;;;;5076874;28;39079;-87
2021/04/24 00:41:09;;;;;;;8.90;5.07;;;6.00;40.50;;;;;;5055266;28;37823;-87
2021/04/24 00:43:38;;;;;;;8.27;4.90;;;6.00;40.70;;;;;;5068710;28;35949;-86
2021/04/24 00:46:09;;;;;;;5.73;4.27;;;5.90;41.00;;;;;;5081957;28;39820;-86
2021/04/24 00:48:37;;;;;;;6.27;4.80;;;5.80;41.40;;;;;;5063284;28;37368;-87
2021/04/24 00:51:05;;;;;;;8.13;4.00;;;5.80;41.40;;;;;;5076243;28;38287;-88
2021/04/24 00:53:33;;;;;;;6.40;3.73;;;5.80;41.50;;;;;;5068297;28;36223;-86
2021/04/24 00:56:05;;;;;;;6.17;4.20;;;5.80;41.70;;;;;;5075918;28;38267;-86
2021/04/24 00:58:33;;;;;;;6.33;3.47;;;5.80;42.00;;;;;;5075523;28;38242;-86
2021/04/24 01:01:01;;;;;;;7.90;4.13;;;5.70;41.70;;;;;;5080671;28;38551;-87
2021/04/24 01:03:29;;;;;;;6.00;4.47;;;5.70;41.70;;;;;;5057718;28;35692;-86
2021/04/24 01:05:56;;;;;;;6.10;4.43;;;5.70;42.00;;;;;;5054134;28;38529;-86
2021/04/24 01:08:24;;;;;;;11.77;4.70;;;5.60;41.90;;;;;;5071575;28;39309;-86
2021/04/24 01:10:54;;;;;;;6.23;4.10;;;5.50;42.30;;;;;;5082703;28;38663;-86
2021/04/24 01:13:24;;;;;;;7.10;4.30;;;5.40;42.50;;;;;;5088545;28;37681;-86
2021/04/24 01:15:55;;;;;;;8.43;4.00;;;5.40;42.50;;;;;;5064260;28;38340;-85
2021/04/24 01:18:22;;;;;;;8.30;4.60;;;5.40;42.40;;;;;;5083228;28;39709;-88
2021/04/24 01:20:49;;;;;;;10.00;4.70;;;5.40;42.20;;;;;;5069420;28;38013;-85
2021/04/24 01:23:17;;;;;;;7.47;4.97;;;5.40;42.10;;;;;;5065375;28;35738;-86
2021/04/24 01:25:45;;;;;;;8.27;4.73;;;5.40;41.90;;;;;;5082666;28;39832;-86
2021/04/24 01:28:12;;;;;;;7.67;5.27;;;5.40;41.80;;;;;;5073391;28;37405;-86
2021/04/24 01:30:42;;;;;;;7.53;5.10;;;5.30;41.70;;;;;;5064945;28;36574;-86
2021/04/24 01:33:13;;;;;;;7.80;5.10;;;5.30;41.80;;;;;;5082655;28;38121;-86
2021/04/24 01:35:42;;;;;;;10.97;4.93;;;5.20;42.10;;;;;;5078859;28;40021;-87
2021/04/24 01:38:10;;;;;;;8.57;5.33;;;5.10;42.20;;;;;;5059471;28;38583;-86
2021/04/24 01:40:39;;;;;;;8.63;5.40;;;5.10;42.40;;;;;;5054117;28;38049;-87
2021/04/24 01:43:06;;;;;;;11.90;6.80;;;5.10;42.50;;;;;;5044073;28;35938;-86
2021/04/24 01:45:34;;;;;;;10.30;6.07;;;5.10;42.60;;;;;;5061878;28;39782;-85
2021/04/24 01:48:05;;;;;;;10.60;5.77;;;5.10;42.60;;;;;;5063772;28;39253;-86
2021/04/24 01:50:34;;;;;;;10.33;6.20;;;5.10;42.40;;;;;;5052219;28;38447;-86
2021/04/24 01:53:09;;;;;;;8.23;5.80;;;5.10;42.50;;;;;;5044555;28;36170;-86
2021/04/24 01:55:39;;;;;;;13.10;5.60;;;5.00;42.60;;;;;;5045465;28;38403;-86
2021/04/24 01:58:09;;;;;;;7.60;5.30;;;5.00;42.60;;;;;;5046429;28;38483;-87
2021/04/24 02:00:38;;;;;;;5.13;4.30;;;5.00;42.70;;;;;;5036736;28;37588;-87
2021/04/24 02:03:08;;;;;;;6.43;5.10;;;4.90;42.70;;;;;;5053190;28;38209;-86
2021/04/24 02:05:36;;;;;;;8.20;4.70;;;4.90;42.90;;;;;;5043573;28;39572;-87
2021/04/24 02:08:07;;;;;;;9.67;4.83;;;4.90;42.80;;;;;;5033520;28;38755;-87
2021/04/24 02:10:35;;;;;;;11.10;5.10;;;4.80;42.80;;;;;;5035915;28;37207;-86
2021/04/24 02:13:07;;;;;;;6.53;4.53;;;4.80;42.80;;;;;;5035543;28;36154;-86
2021/04/24 02:15:34;;;;;;;8.50;5.40;;;4.70;43.00;;;;;;5053554;28;39529;-86
2021/04/24 02:18:01;;;;;;;11.70;5.90;;;4.70;43.10;;;;;;5033597;28;38246;-86
2021/04/24 02:20:28;;;;;;;6.10;4.53;;;4.60;43.30;;;;;;5062454;28;38299;-85
2021/04/24 02:22:55;;;;;;;8.87;6.00;;;4.70;43.40;;;;;;5031003;28;35927;-85
2021/04/24 02:25:23;;;;;;;6.83;3.83;;;4.70;43.10;;;;;;5054756;28;39606;-86
2021/04/24 02:27:50;;;;;;;10.50;5.10;;;4.70;43.20;;;;;;5049561;28;38793;-87
2021/04/24 02:30:20;;;;;;;7.43;4.80;;;4.60;43.40;;;;;;5042749;28;38186;-86
2021/04/24 02:32:51;;;;;;;7.83;4.97;;;4.50;43.60;;;;;;5050310;28;36689;-87
2021/04/24 02:35:34;;;;;;;4.73;4.17;;;4.50;43.60;;;;;;5043825;28;39210;-85
2021/04/24 02:38:01;;;;;;;5.40;4.70;;;4.50;43.40;;;;;;5050482;28;38025;-86
2021/04/24 02:40:30;;;;;;;5.30;4.60;;;4.50;43.40;;;;;;5072827;28;38793;-86
2021/04/24 02:42:57;;;;;;;6.47;4.57;;;4.50;43.40;;;;;;5048331;28;37463;-86
2021/04/24 02:45:25;;;;;;;10.27;4.73;;;4.50;43.60;;;;;;5054259;28;38361;-86
2021/04/24 02:47:52;;;;;;;8.07;4.53;;;4.40;43.60;;;;;;5071783;28;38800;-86
2021/04/24 02:50:21;;;;;;;7.50;4.40;;;4.40;43.80;;;;;;5071979;28;38628;-87
2021/04/24 02:52:49;;;;;;;6.80;4.87;;;4.30;43.90;;;;;;5048059;28;36302;-86
2021/04/24 02:55:17;;;;;;;11.07;5.77;;;4.30;44.10;;;;;;5046252;28;38470;-87
2021/04/24 02:57:45;;;;;;;8.70;5.57;;;4.20;44.50;;;;;;5054626;28;37606;-85
2021/04/24 03:00:17;;;;;;;8.73;4.90;;;4.10;44.50;;;;;;5074279;28;38525;-85
2021/04/24 03:02:45;;;;;;;7.17;5.07;;;4.10;44.70;;;;;;5077727;28;37830;-85
2021/04/24 03:05:15;;;;;;;6.93;5.10;;;4.00;44.90;;;;;;5067666;28;40671;-86
2021/04/24 03:07:43;;;;;;;5.63;4.77;;;3.90;44.90;;;;;;5056236;28;38163;-85
2021/04/24 03:10:13;;;;;;;5.90;4.63;;;3.90;44.90;;;;;;5055571;28;37338;-85
2021/04/24 03:12:40;;;;;;;9.90;5.17;;;3.90;45.00;;;;;;5053463;28;35922;-85
2021/04/24 03:15:08;;;;;;;9.07;5.10;;;3.90;45.20;;;;;;5073653;28;39804;-85
2021/04/24 03:17:35;;;;;;;11.43;5.53;;;3.80;45.30;;;;;;5056030;28;37803;-85
2021/04/24 03:20:10;;;;;;;6.47;4.50;;;3.80;45.30;;;;;;5043485;28;38047;-85
2021/04/24 03:22:37;;;;;;;7.40;4.93;;;3.70;45.30;;;;;;5050561;28;36792;-86
2021/04/24 03:25:05;;;;;;;7.50;5.30;;;3.70;45.60;;;;;;5051766;28;38649;-85
2021/04/24 03:27:32;;;;;;;9.80;6.00;;;3.70;45.70;;;;;;5073271;28;39311;-85
2021/04/24 03:30:00;;;;;;;8.73;5.43;;;3.60;45.50;;;;;;5055699;28;37302;-85
2021/04/24 03:32:27;;;;;;;9.90;6.60;;;3.60;45.70;;;;;;5069017;28;37243;-85
2021/04/24 03:34:54;;;;;;;8.43;5.80;;;3.60;45.60;;;;;;5059729;28;38106;-85
2021/04/24 03:37:22;;;;;;;7.80;5.40;;;3.70;45.70;;;;;;5055581;28;38734;-86
2021/04/24 03:39:49;;;;;;;16.37;7.10;;;3.70;45.60;;;;;;5067475;28;38688;-85
2021/04/24 03:42:16;;;;;;;8.37;5.43;;;3.60;45.70;;;;;;5060930;28;36259;-85
2021/04/24 03:44:43;;;;;;;10.10;6.00;;;3.60;45.70;;;;;;5054403;28;38155;-85
2021/04/24 03:47:10;;;;;;;10.23;6.13;;;3.60;45.90;;;;;;5061617;28;39840;-85
2021/04/24 03:49:37;;;;;;;11.80;6.20;;;3.50;46.00;;;;;;5063742;28;38606;-85
2021/04/24 03:52:05;;;;;;;8.37;5.40;;;3.50;46.00;;;;;;5069597;28;36129;-85
2021/04/24 03:54:33;;;;;;;8.50;5.70;;;3.50;45.90;;;;;;5054243;28;38409;-86
2021/04/24 03:57:04;;;;;;;9.20;6.17;;;3.50;45.90;;;;;;5075215;28;38776;-85
2021/04/24 03:59:31;;;;;;;10.83;6.37;;;3.60;46.10;;;;;;5076239;28;38514;-85
2021/04/24 04:01:58;;;;;;;9.10;5.30;;;3.60;45.90;;;;;;5064667;28;36807;-85
2021/04/24 04:04:25;;;;;;;10.80;6.50;;;3.50;45.90;;;;;;5064215;28;40390;-85
2021/04/24 04:06:54;;;;;;;13.90;6.23;;;3.50;46.60;;;;;;5065427;28;39546;-86
2021/04/24 04:09:21;;;;;;;10.37;7.33;;;3.50;46.10;;;;;;5080171;28;38702;-85
2021/04/24 04:11:50;;;;;;;7.67;5.70;;;3.50;46.20;;;;;;5060403;28;36097;-85
2021/04/24 04:14:17;;;;;;;8.50;6.27;;;3.40;46.20;;;;;;5057713;28;38340;-85
2021/04/24 04:16:44;;;;;;;8.00;6.00;;;3.50;46.40;;;;;;5079463;28;38685;-84
2021/04/24 04:19:11;;;;;;;13.10;5.70;;;3.50;46.40;;;;;;5093603;28;39801;-85
2021/04/24 04:21:38;;;;;;;7.97;4.97;;;3.50;46.40;;;;;;5068740;28;36946;-85
2021/04/24 04:24:06;;;;;;;8.13;4.80;;;3.50;46.30;;;;;;5089469;28;39786;-85
2021/04/24 04:26:33;;;;;;;10.23;5.57;;;3.60;46.40;;;;;;5069432;28;38082;-85
2021/04/24 04:29:01;;;;;;;8.77;5.27;;;3.60;46.30;;;;;;5053976;28;37427;-84
2021/04/24 04:31:28;;;;;;;6.90;5.00;;;3.70;46.30;;;;;;5060673;28;35984;-84
2021/04/24 04:33:55;;;;;;;9.87;5.23;;;3.80;46.20;;;;;;5063164;28;38785;-85
2021/04/24 04:36:22;;;;;;;9.60;5.20;;;3.80;46.10;;;;;;5079335;28;38762;-85
2021/04/24 04:38:49;;;;;;;10.10;5.83;;;3.80;46.00;;;;;;5081501;28;38504;-85
2021/04/24 04:41:16;;;;;;;9.70;5.47;;;3.90;45.90;;;;;;5089194;28;37314;-86
2021/04/24 04:43:43;;;;;;;8.63;5.37;;;3.90;45.60;;;;;;5057014;28;38665;-85
2021/04/24 04:46:11;;;;;;;13.33;5.63;;;3.90;45.50;;;;;;5077903;28;39466;-85
2021/04/24 04:48:38;;;;;;;9.30;5.30;;;3.90;45.60;;;;;;5077975;28;38560;-85
2021/04/24 04:51:08;;;;;;;11.73;6.07;;;4.00;45.70;;;;;;5063742;28;37961;-85
2021/04/24 04:53:35;;;;;;;10.00;5.47;;;4.10;45.60;;;;;;5043608;28;38449;-85
2021/04/24 04:56:02;;;;;;;8.07;5.03;;;4.10;45.30;;;;;;5054700;28;38087;-85
2021/04/24 04:58:29;;;;;;;8.33;5.30;;;4.20;45.20;;;;;;5052492;28;37067;-85
2021/04/24 05:00:56;;;;;;;8.93;5.13;;;4.30;45.30;;;;;;5060841;28;35914;-84
2021/04/24 05:03:24;;;;;;;7.23;4.90;;;4.40;45.00;;;;;;5058129;28;40243;-85
2021/04/24 05:05:51;;;;;;;7.20;5.03;;;4.50;45.00;;;;;;5074160;28;40301;-85
2021/04/24 05:08:18;;;;;;;11.50;5.00;;;4.60;44.80;;;;;;5056682;28;37719;-85
2021/04/24 05:10:45;;;;;;;7.50;4.83;;;4.70;44.60;;;;;;5077632;28;37941;-84
2021/04/24 05:13:14;;;;;;;10.07;5.10;;;4.90;44.30;;;;;;5084351;28;39940;-85
2021/04/24 05:15:41;;;;;;;8.00;4.40;;;5.00;44.00;;;;;;5083455;28;39261;-85
2021/04/24 05:18:08;;;;;;;8.13;4.63;;;5.20;43.90;;;;;;5065163;28;37286;-85
2021/04/24 05:20:36;;;;;;;10.03;5.00;;;5.40;43.60;;;;;;5058806;28;35563;-85
2021/04/24 05:23:04;;;;;;;10.03;4.97;;;5.60;43.10;;;;;;5065327;28;39467;-84
2021/04/24 05:25:31;;;;;;;6.67;4.40;;;5.90;42.90;;;;;;5056821;28;37997;-85
2021/04/24 05:28:00;;;;;;;11.30;5.20;;;6.70;44.00;;;;;;5064686;28;39711;-85
2021/04/24 05:30:27;;;;;;;12.23;4.97;;;8.50;40.00;;;;;;5065508;28;38691;-85
2021/04/24 05:32:55;;;;;;;8.17;5.20;;;10.40;36.10;;;;;;5074545;28;38622;-85
2021/04/24 05:35:22;;;;;;;6.70;4.63;;;12.10;32.70;;;;;;5075390;28;38937;-85
2021/04/24 05:37:50;;;;;;;10.33;5.17;;;13.60;30.00;;;;;;5068897;28;38271;-85
2021/04/24 05:40:19;;;;;;;10.27;5.30;;;15.00;28.10;;;;;;5061439;28;38244;-86
2021/04/24 05:42:46;;;;;;;9.80;6.00;;;16.40;26.50;;;;;;5057979;28;40543;-85
2021/04/24 05:45:15;;;;;;;8.57;4.70;;;17.50;25.10;;;;;;5055398;28;39574;-86
2021/04/24 05:47:45;;;;;;;7.50;5.67;;;18.60;23.90;;;;;;5038207;28;38453;-85
2021/04/24 05:50:14;;;;;;;10.97;5.70;;;19.70;23.00;;;;;;5037353;28;36357;-85
2021/04/24 05:52:41;;;;;;;7.80;7.00;;;20.50;21.40;;;;;;5027316;28;38396;-85
2021/04/24 05:55:11;;;;;;;19.93;6.50;;;21.10;21.10;;;;;;5053683;28;39627;-85
2021/04/24 05:57:39;;;;;;;7.77;6.10;;;21.50;20.80;;;;;;5036909;28;37997;-85
2021/04/24 06:00:12;;;;;;;7.90;5.70;;;21.80;20.70;;;;;;5059012;28;36824;-86
2021/04/24 06:02:39;;;;;;;9.70;6.23;;;22.30;20.10;;;;;;5047725;28;39854;-85
2021/04/24 06:05:08;;;;;;;9.43;6.90;;;23.20;19.50;;;;;;5059262;28;40221;-86
2021/04/24 06:07:36;;;;;;;7.07;6.37;;;24.40;18.90;;;;;;5036974;28;37244;-86
2021/04/24 06:10:04;;;;;;;10.30;6.70;;;25.50;17.90;;;;;;5056601;28;37532;-86
2021/04/24 06:12:32;;;;;;;7.60;6.37;;;26.00;17.20;;;;;;5041087;28;39674;-85
2021/04/24 06:14:59;;;;;;;8.90;6.10;;;26.80;16.70;;;;;;5073831;28;38890;-85
2021/04/24 06:17:27;;;;;;;9.03;6.93;;;27.50;16.10;;;;;;5053670;28;38169;-86
2021/04/24 06:19:54;;;;;;;8.20;6.37;;;27.70;15.60;;;;;;5037549;28;36207;-86
2021/04/24 06:22:21;;;;;;;7.77;6.10;;;28.30;15.30;;;;;;5055509;28;39800;-85
2021/04/24 06:24:48;;;;;;;13.73;6.77;;;28.40;14.90;;;;;;5052648;28;38055;-86
2021/04/24 06:27:16;;;;;;;9.83;6.23;;;28.70;14.40;;;;;;5042010;28;38405;-86
2021/04/24 06:29:44;;;;;;;8.03;6.57;;;29.20;14.00;;;;;;5059067;28;38437;-87
2021/04/24 06:32:11;;;;;;;9.83;6.30;;;29.70;13.40;;;;;;5053622;28;40132;-86
2021/04/24 06:34:40;;;;;;;6.20;5.20;;;30.40;13.30;;;;;;5041794;28;40044;-86
2021/04/24 06:37:08;;;;;;;8.07;6.77;;;30.80;12.70;;;;;;5034228;28;37219;-87
2021/04/24 06:39:35;;;;;;;10.40;5.83;;;31.20;12.60;;;;;;5040609;28;36041;-86
2021/04/24 06:42:03;;;;;;;11.70;6.33;;;32.20;12.20;;;;;;5054767;28;39679;-84
2021/04/24 06:44:30;;;;;;;11.50;6.90;;;32.70;11.40;;;;;;5054425;28;40231;-84
2021/04/24 06:46:58;;;;;;;8.73;6.53;;;33.10;11.30;;;;;;5042400;28;36239;-84
2021/04/24 06:49:25;;;;;;;6.53;5.83;;;33.50;10.80;;;;;;5039286;28;37397;-85
2021/04/24 06:51:52;;;;;;;11.50;6.70;;;34.10;10.70;;;;;;5049654;28;38349;-84
2021/04/24 06:54:20;;;;;;;11.47;7.30;;;34.70;10.50;;;;;;5047410;28;39080;-84
2021/04/24 06:56:47;;;;;;;7.60;6.90;;;34.90;10.00;;;;;;5049354;28;38731;-85
2021/04/24 06:59:14;;;;;;;9.50;6.83;;;35.10;9.80;;;;;;5044689;28;37976;-85
2021/04/24 07:01:41;;;;;;;9.57;7.10;;;35.40;9.70;;;;;;5048509;28;40534;-85
2021/04/24 07:04:10;;;;;;;7.10;6.20;;;35.60;9.50;;;;;;5045880;28;39429;-86
2021/04/24 07:06:41;;;;;;;8.70;6.20;;;35.90;9.40;;;;;;5043313;28;37481;-86
2021/04/24 07:09:08;;;;;;;8.80;6.23;;;36.20;9.10;;;;;;5049668;28;36067;-86
2021/04/24 07:11:35;;;;;;;13.47;6.73;;;36.50;8.80;;;;;;5049257;28;39499;-86
2021/04/24 07:14:02;;;;;;;11.83;5.80;;;36.20;8.50;;;;;;5037456;28;39548;-85
2021/04/24 07:16:29;;;;;;;6.83;6.20;;;36.40;8.60;;;;;;5064694;28;38473;-85
2021/04/24 07:18:57;;;;;;;14.00;6.77;;;36.50;8.40;;;;;;5054354;28;36061;-86
2021/04/24 07:21:25;;;;;;;6.70;6.13;;;36.70;8.40;;;;;;5055100;28;38614;-86
2021/04/24 07:23:52;;;;;;;6.90;6.07;;;36.90;8.20;;;;;;5060662;28;39253;-86
2021/04/24 07:26:20;;;;;;;7.67;6.10;;;37.60;7.90;;;;;;5041984;28;36867;-87
2021/04/24 07:28:47;;;;;;;8.23;6.23;;;37.90;7.30;;;;;;5052168;28;36867;-86
2021/04/24 07:31:15;;;;;;;6.83;5.87;;;38.20;7.30;;;;;;5051161;28;38564;-86
2021/04/24 07:33:42;;;;;;;6.37;5.60;;;38.20;6.90;;;;;;5055180;28;39582;-85
2021/04/24 07:36:10;;;;;;;7.00;6.30;;;38.20;6.60;;;;;;5051798;28;38684;-87
2021/04/24 07:38:38;;;;;;;7.03;5.90;;;38.40;6.80;;;;;;5063829;28;37388;-86
2021/04/24 07:41:05;;;;;;;6.33;5.70;;;38.20;6.60;;;;;;5073915;28;39679;-86
2021/04/24 07:43:33;;;;;;;8.87;5.90;;;38.70;7.00;;;;;;5064198;28;37576;-86
2021/04/24 07:46:00;;;;;;;6.87;5.80;;;39.00;6.40;;;;;;5057465;28;37077;-87
2021/04/24 07:48:27;;;;;;;9.23;6.40;;;39.00;6.60;;;;;;5089372;28;38067;-86
2021/04/24 07:50:54;;;;;;;7.97;6.30;;;39.20;6.30;;;;;;5055147;28;38344;-86
2021/04/24 07:53:21;;;;;;;8.23;6.60;;;39.40;6.40;;;;;;5054166;28;38259;-86
2021/04/24 07:55:49;;;;;;;9.10;6.50;;;39.70;6.50;;;;;;5072592;28;38248;-85
2021/04/24 07:58:16;;;;;;;6.67;6.07;;;39.80;6.20;;;;;;5067362;28;37072;-86
2021/04/24 08:00:43;;;;;;;7.10;6.27;;;40.20;6.00;;;;;;5072741;28;40264;-86
2021/04/24 08:03:10;;;;;;;9.37;5.80;;;40.30;5.80;;;;;;5080392;28;39441;-86
2021/04/24 08:05:38;;;;;;;7.87;6.30;;;40.80;6.20;;;;;;5062598;28;37405;-91
2021/04/24 08:11:42;;;;;;;15.90;7.27;;;41.50;5.30;;;;;;5012254;28;41197;-92
2021/04/24 08:14:18;;;;;;;6.90;6.30;;;41.20;5.10;;;;;;5009543;28;40398;-89
2021/04/24 08:17:16;;;;;;;8.73;7.10;;;41.10;5.00;;;;;;5010805;28;39296;-90
2021/04/24 08:20:02;;;;;;;8.67;6.37;;;40.70;5.30;;;;;;5009923;28;37626;-92
2021/04/24 08:22:40;;;;;;;6.73;6.10;;;40.80;5.40;;;;;;5050140;28;40580;-90
2021/04/24 08:25:40;;;;;;;6.93;6.30;;;41.40;5.20;;;;;;5088780;28;40418;-90
2021/04/24 08:28:51;;;;;;;17.07;7.13;;;42.30;5.00;;;;;;5088062;28;37614;-90
2021/04/24 08:32:03;;;;;;;7.00;6.30;;;42.40;4.70;;;;;;5069693;28;38262;-93
2021/04/24 08:37:45;;;;;;;7.70;6.70;;;42.10;4.40;;;;;;5066820;28;38152;-89
2021/04/24 08:40:22;;;;;;;8.67;6.67;;;42.50;4.20;;;;;;5053377;28;36825;-91
2021/04/24 08:43:15;;;;;;;8.03;7.23;;;43.40;4.30;;;;;;5062625;28;38345;-91
2021/04/24 08:46:01;;;;;;;10.30;6.47;;;43.80;3.90;;;;;;5052924;28;39697;-91
2021/04/24 08:48:34;;;;;;;8.57;6.67;;;43.70;3.80;;;;;;5067445;28;40299;-89
2021/04/24 08:51:02;;;;;;;8.90;6.07;;;43.90;3.90;;;;;;5066055;28;38648;-89
2021/04/24 08:53:32;;;;;;;7.47;6.63;;;43.80;3.60;;;;;;5045720;28;36334;-89
2021/04/24 08:55:59;;;;;;;9.10;6.90;;;43.80;3.60;;;;;;5073750;28;39325;-89
2021/04/24 08:58:29;;;;;;;6.60;6.00;;;43.70;3.50;;;;;;5040697;28;40371;-90
2021/04/24 09:00:57;;;;;;;7.40;6.63;;;43.60;3.70;;;;;;5038975;28;38486;-89
2021/04/24 09:03:24;;;;;;;7.60;6.27;;;43.80;3.80;;;;;;5068860;28;36954;-89
2021/04/24 09:05:53;;;;;;;7.67;6.67;;;44.00;3.80;;;;;;5067893;28;39876;-89
2021/04/24 09:08:24;;;;;;;7.50;6.67;;;44.40;3.40;;;;;;5061947;28;39061;-89
2021/04/24 09:10:56;;;;;;;7.97;6.90;;;44.00;3.70;;;;;;5070998;28;37637;-91
2021/04/24 09:13:25;;;;;;;12.27;6.53;;;43.60;3.30;;;;;;5058258;28;36980;-89
2021/04/24 09:15:53;;;;;;;7.77;6.30;;;43.30;3.70;;;;;;5076305;28;39899;-89
2021/04/24 09:18:24;;;;;;;6.80;6.10;;;43.60;3.70;;;;;;5038940;28;38627;-89
2021/04/24 09:20:53;;;;;;;8.70;6.80;;;43.80;3.40;;;;;;5067591;28;39588;-90
2021/04/24 09:23:22;;;;;;;7.83;6.70;;;44.50;3.60;;;;;;5062277;28;35808;-88
2021/04/24 09:25:51;;;;;;;10.40;6.50;;;44.70;3.40;;;;;;5041022;28;38540;-89
2021/04/24 09:28:26;;;;;;;7.50;6.80;;;45.10;3.00;;;;;;5035394;28;37643;-89
2021/04/24 09:30:54;;;;;;;20.87;7.13;;;44.60;3.20;;;;;;5027868;28;38695;-89
2021/04/24 09:33:22;;;;;;;11.13;6.20;;;44.70;3.40;;;;;;5050352;28;37325;-89
2021/04/24 09:35:53;;;;;;;6.57;5.90;;;44.80;3.30;;;;;;5052947;28;39965;-88
2021/04/24 09:38:23;;;;;;;9.57;6.30;;;44.80;3.30;;;;;;5054317;28;39027;-88
2021/04/24 09:41:19;;;;;;;13.33;6.90;;;44.70;3.30;;;;;;5052313;28;37431;-88
2021/04/24 09:43:54;;;;;;;9.83;6.23;;;44.90;3.20;;;;;;5002304;28;37738;-89
2021/04/24 09:46:27;;;;;;;6.40;5.80;;;44.40;2.60;;;;;;5049993;28;38753;-89
2021/04/24 09:49:17;;;;;;;6.70;6.10;;;43.90;3.30;;;;;;5054737;28;39827;-91
2021/04/24 09:51:50;;;;;;;9.23;5.13;;;43.60;3.10;;;;;;5055638;28;37327;-87
2021/04/24 09:54:18;;;;;;;7.10;5.90;;;43.90;2.90;;;;;;5051204;28;36778;-85
2021/04/24 09:56:56;;;;;;;9.53;5.87;;;43.80;2.60;;;;;;5052635;28;38248;-85
2021/04/24 09:59:23;;;;;;;7.13;5.30;;;44.10;2.90;;;;;;5041078;28;37644;-85
2021/04/24 10:01:57;;;;;;;7.53;5.87;;;44.50;2.90;;;;;;5064427;28;38021;-85
2021/04/24 10:04:26;;;;;;;12.97;6.50;;;44.10;2.10;;;;;;5074654;28;38156;-86
2021/04/24 10:06:54;;;;;;;7.73;6.93;;;43.20;2.50;;;;;;5061676;28;39898;-85
2021/04/24 10:09:25;;;;;;;6.73;6.00;;;40.60;3.10;;;;;;5088176;28;39820;-84
2021/04/24 10:12:09;;;;;;;7.00;6.30;;;40.00;3.60;;;;;;5060057;28;38058;-85
2021/04/24 10:14:38;;;;;;;6.90;5.77;;;40.60;3.60;;;;;;5056410;28;35818;-83
2021/04/24 10:17:14;;;;;;;12.80;11.50;;;40.90;3.20;;;;;;5075199;28;40487;-86
2021/04/24 10:19:44;;;;;;;9.40;6.30;;;40.90;3.30;;;;;;5057631;28;38619;-87
2021/04/24 10:22:13;;;;;;;8.60;6.33;;;41.10;3.10;;;;;;5076044;28;39691;-88
2021/04/24 10:24:40;;;;;;;8.23;7.40;;;41.10;3.10;;;;;;5063303;28;35824;-88
2021/04/24 10:27:10;;;;;;;7.47;5.83;;;41.50;3.40;;;;;;5059396;28;38620;-85
2021/04/24 10:29:38;;;;;;;6.80;6.07;;;41.70;3.50;;;;;;5075134;28;39158;-86
2021/04/24 10:32:06;;;;;;;6.90;5.83;;;41.80;3.50;;;;;;5069472;28;36920;-84
2021/04/24 10:34:33;;;;;;;9.53;8.50;;;41.50;3.20;;;;;;5068635;28;36057;-86
2021/04/24 10:37:02;;;;;;;7.30;6.50;;;40.80;3.00;;;;;;5083511;28;39976;-86
2021/04/24 10:39:30;;;;;;;9.47;6.50;;;39.30;2.90;;;;;;5082669;28;40069;-86
2021/04/24 10:42:10;;;;;;;17.67;13.73;;;38.00;3.90;;;;;;5065419;28;37529;-85
2021/04/24 10:44:50;;;;;;;6.83;5.80;;;37.70;3.80;;;;;;5079958;28;37629;-86
2021/04/24 10:47:52;;;;;;;6.93;5.50;;;37.50;4.00;;;;;;5078821;28;40590;-86
2021/04/24 10:50:20;;;;;;;7.03;6.33;;;36.80;4.10;;;;;;5066865;28;39085;-85
2021/04/24 10:52:51;;;;;;;7.53;6.17;;;36.40;4.80;;;;;;5076913;28;38804;-86
2021/04/24 10:55:27;;;;;;;7.13;6.43;;;36.70;4.60;;;;;;5066102;28;35954;-90
2021/04/24 10:57:57;;;;;;;10.70;6.93;;;36.50;4.30;;;;;;5077505;28;38932;-87
2021/04/24 11:00:44;;;;;;;7.20;6.33;;;36.20;4.30;;;;;;5063550;28;37885;-84
2021/04/24 11:03:32;;;;;;;8.53;6.30;;;35.90;4.50;;;;;;5057143;28;37601;-86
2021/04/24 11:06:08;;;;;;;8.40;7.07;;;35.20;4.50;;;;;;5085511;28;37236;-85
2021/04/24 11:08:41;;;;;;;7.00;6.40;;;34.50;4.50;;;;;;5073763;28;40394;-88
2021/04/24 11:14:08;;;;;;;7.13;6.50;;;33.00;5.20;;;;;;5043197;28;38718;-88
2021/04/24 11:16:56;;;;;;;9.80;6.93;;;33.00;5.90;;;;;;5076903;28;37590;-86
2021/04/24 11:19:52;;;;;;;7.80;6.77;;;31.70;5.40;;;;;;5079785;28;40598;-88
2021/04/24 11:22:44;;;;;;;7.60;6.80;;;30.30;6.20;;;;;;4999094;28;37694;-87
2021/04/24 11:25:33;;;;;;;8.33;6.60;;;29.80;6.50;;;;;;5022399;28;37152;-87
2021/04/24 11:28:20;;;;;;;8.97;6.90;;;29.30;7.00;;;;;;5080432;28;36103;-87
2021/04/24 11:33:44;;;;;;;9.57;6.90;;;28.20;8.70;;;;;;5079987;28;39272;-87
2021/04/24 11:36:27;;;;;;;9.07;5.97;;;28.10;8.30;;;;;;5085361;28;37675;-89
2021/04/24 11:39:34;;;;;;;7.87;6.20;;;27.70;8.50;;;;;;5054639;28;36200;-88
2021/04/24 11:42:48;;;;;;;8.10;6.57;;;26.10;8.90;;;;;;5024163;28;38455;-89
2021/04/24 11:45:59;;;;;;;9.00;6.20;;;25.20;9.30;;;;;;5078293;28;41558;-86
2021/04/24 11:49:13;;;;;;;9.60;6.63;;;24.10;9.80;;;;;;5088424;28;39521;-87
2021/04/24 11:51:59;;;;;;;10.03;6.70;;;23.70;10.50;;;;;;5085443;28;39104;-87
2021/04/24 11:54:32;;;;;;;7.50;5.73;;;23.70;10.30;;;;;;5084276;28;39897;-87
2021/04/24 11:57:05;;;;;;;10.80;6.10;;;23.60;10.20;;;;;;5069432;28;38011;-88
2021/04/24 11:59:40;;;;;;;7.70;5.57;;;23.50;10.90;;;;;;5065821;28;37534;-88
2021/04/24 12:02:35;;;;;;;10.60;6.70;;;23.40;10.30;;;;;;5073514;28;37060;-88
2021/04/24 12:05:27;;;;;;;10.07;6.43;;;23.40;10.70;;;;;;5085624;28;39677;-88
2021/04/24 12:07:59;;;;;;;10.03;5.73;;;23.30;9.50;;;;;;5084142;28;38747;-87
2021/04/24 12:10:29;;;;;;;10.23;5.83;;;23.10;10.10;;;;;;5075559;28;38626;-87
2021/04/24 12:13:25;;;;;;;8.17;5.10;;;23.10;11.50;;;;;;5085229;28;37745;-85
2021/04/24 12:16:01;;;;;;;6.83;5.20;;;23.10;10.50;;;;;;5059948;28;38616;-88
2021/04/24 12:18:44;;;;;;;9.17;6.00;;;23.10;10.10;;;;;;5053971;28;39324;-88
2021/04/24 12:21:35;;;;;;;7.10;5.23;;;23.10;9.80;;;;;;5061761;28;39476;-88
2021/04/24 12:24:12;;;;;;;6.80;4.87;;;23.10;10.10;;;;;;5065389;28;37510;-88
2021/04/24 12:26:42;;;;;;;8.03;4.93;;;23.00;10.00;;;;;;5051269;28;39863;-87
2021/04/24 12:29:10;;;;;;;7.10;5.50;;;23.10;10.10;;;;;;5054640;28;38501;-86
2021/04/24 12:31:50;;;;;;;12.37;6.07;;;23.10;9.80;;;;;;5085552;28;38590;-85
2021/04/24 12:34:27;;;;;;;6.13;5.53;;;23.00;9.60;;;;;;5067858;28;37082;-87
2021/04/24 12:36:55;;;;;;;6.47;5.77;;;23.00;9.60;;;;;;5065652;28;38724;-87
2021/04/24 12:39:34;;;;;;;10.90;8.13;;;23.00;9.10;;;;;;5054859;28;38261;-87
2021/04/24 12:44:58;;;;;;;8.83;5.37;;;22.80;8.90;;;;;;5072420;28;37270;-86
2021/04/24 12:47:27;;;;;;;5.83;4.93;;;22.70;9.30;;;;;;5062399;28;38655;-86
2021/04/24 12:49:56;;;;;;;5.73;4.83;;;22.50;9.30;;;;;;5066768;28;39260;-86
2021/04/24 12:52:43;;;;;;;9.17;5.10;;;22.40;9.30;;;;;;5066655;28;37769;-86
2021/04/24 12:55:14;;;;;;;5.90;4.70;;;22.20;9.00;;;;;;5085184;28;39429;-87
2021/04/24 12:57:56;;;;;;;6.03;4.70;;;22.20;9.20;;;;;;5057686;28;38504;-87
2021/04/24 13:00:35;;;;;;;5.50;4.20;;;22.30;9.30;;;;;;5066085;28;38224;-85
2021/04/24 13:03:20;;;;;;;6.33;4.43;;;22.30;9.00;;;;;;5095565;28;39453;-86
2021/04/24 13:05:48;;;;;;;6.60;4.37;;;22.40;9.10;;;;;;5067768;28;36982;-86
2021/04/24 13:08:15;;;;;;;7.23;4.60;;;22.40;7.80;;;;;;5085477;28;39690;-86
2021/04/24 13:10:43;;;;;;;6.07;4.93;;;22.50;8.10;;;;;;5048355;28;39903;-87
2021/04/24 13:13:18;;;;;;;8.80;3.80;;;22.50;8.20;;;;;;5058790;28;38051;-86
2021/04/24 13:15:46;;;;;;;3.83;3.23;;;22.60;7.80;;;;;;5063919;28;35966;-86
2021/04/24 13:18:30;;;;;;;5.80;3.80;;;22.60;7.60;;;;;;5081491;28;40056;-85
2021/04/24 13:21:20;;;;;;;7.30;3.97;;;22.60;7.80;;;;;;5067447;28;38181;-85
2021/04/24 13:24:08;;;;;;;7.10;4.60;;;22.50;7.60;;;;;;5081560;28;38643;-85
2021/04/24 13:26:37;;;;;;;6.90;4.00;;;22.50;7.60;;;;;;5056763;28;36169;-85
2021/04/24 13:29:09;;;;;;;5.40;4.27;;;22.60;7.80;;;;;;5071577;28;39720;-85
2021/04/24 13:31:36;;;;;;;7.00;3.87;;;22.50;6.90;;;;;;5071536;28;40190;-86